sensor_id;sensor_type;location;lat;lon;timestamp;P1;durP1;ratioP1;P2;durP2;ratioP2
36253;SDS011;22291;52.250;21.228;2023-07-02T00:00:13;27.17;;;16.55;;
36253;SDS011;22291;52.250;21.228;2023-07-02T00:02:42;31.80;;;19.50;;
36253;SDS011;22291;52.250;21.228;2023-07-02T00:05:09;91.72;;;84.37;;
36253;SDS011;22291;52.250;21.228;2023-07-02T00:07:38;31.20;;;19.83;;
36253;SDS011;22291;52.250;21.228;2023-07-02T00:10:06;31.15;;;20.97;;
36253;SDS011;22291;52.250;21.228;2023-07-02T00:12:36;73.57;;;67.50;;
36253;SDS011;22291;52.250;21.228;2023-07-02T00:15:05;90.35;;;83.05;;
36253;SDS011;22291;52.250;21.228;2023-07-02T00:17:33;91.78;;;84.58;;
36253;SDS011;22291;52.250;21.228;2023-07-02T00:20:01;29.00;;;18.40;;
36253;SDS011;22291;52.250;21.228;2023-07-02T00:22:30;26.42;;;16.45;;
36253;SDS011;22291;52.250;21.228;2023-07-02T00:24:59;30.37;;;18.35;;
36253;SDS011;22291;52.250;21.228;2023-07-02T00:27:26;29.57;;;19.00;;
36253;SDS011;22291;52.250;21.228;2023-07-02T00:29:53;33.92;;;18.95;;
36253;SDS011;22291;52.250;21.228;2023-07-02T00:32:21;28.00;;;18.30;;
36253;SDS011;22291;52.250;21.228;2023-07-02T00:34:48;31.48;;;19.98;;
36253;SDS011;22291;52.250;21.228;2023-07-02T00:37:15;30.05;;;18.73;;
36253;SDS011;22291;52.250;21.228;2023-07-02T00:39:42;32.90;;;20.62;;
36253;SDS011;22291;52.250;21.228;2023-07-02T00:42:11;35.33;;;20.70;;
36253;SDS011;22291;52.250;21.228;2023-07-02T00:44:41;29.55;;;17.02;;
36253;SDS011;22291;52.250;21.228;2023-07-02T00:47:11;28.95;;;18.27;;
36253;SDS011;22291;52.250;21.228;2023-07-02T00:49:40;30.90;;;19.37;;
36253;SDS011;22291;52.250;21.228;2023-07-02T00:52:08;28.20;;;18.25;;
36253;SDS011;22291;52.250;21.228;2023-07-02T00:54:37;34.50;;;18.62;;
36253;SDS011;22291;52.250;21.228;2023-07-02T00:57:07;36.80;;;20.08;;
36253;SDS011;22291;52.250;21.228;2023-07-02T00:59:35;37.43;;;20.93;;
36253;SDS011;22291;52.250;21.228;2023-07-02T01:02:04;31.90;;;19.67;;
36253;SDS011;22291;52.250;21.228;2023-07-02T01:04:33;33.73;;;20.82;;
36253;SDS011;22291;52.250;21.228;2023-07-02T01:07:01;32.15;;;19.87;;
36253;SDS011;22291;52.250;21.228;2023-07-02T01:09:30;31.60;;;20.97;;
36253;SDS011;22291;52.250;21.228;2023-07-02T01:11:57;36.98;;;21.55;;
36253;SDS011;22291;52.250;21.228;2023-07-02T01:14:40;31.60;;;19.73;;
36253;SDS011;22291;52.250;21.228;2023-07-02T01:17:17;31.85;;;20.80;;
36253;SDS011;22291;52.250;21.228;2023-07-02T01:22:21;35.50;;;19.25;;
36253;SDS011;22291;52.250;21.228;2023-07-02T01:24:52;35.48;;;20.65;;
36253;SDS011;22291;52.250;21.228;2023-07-02T01:27:22;34.58;;;20.92;;
36253;SDS011;22291;52.250;21.228;2023-07-02T01:29:51;33.30;;;21.10;;
36253;SDS011;22291;52.250;21.228;2023-07-02T01:32:20;35.73;;;22.48;;
36253;SDS011;22291;52.250;21.228;2023-07-02T01:34:49;31.82;;;20.62;;
36253;SDS011;22291;52.250;21.228;2023-07-02T01:37:20;34.95;;;21.42;;
36253;SDS011;22291;52.250;21.228;2023-07-02T01:39:48;38.40;;;22.70;;
36253;SDS011;22291;52.250;21.228;2023-07-02T01:42:16;32.28;;;20.68;;
36253;SDS011;22291;52.250;21.228;2023-07-02T01:44:47;32.70;;;20.90;;
36253;SDS011;22291;52.250;21.228;2023-07-02T01:47:18;33.05;;;21.40;;
36253;SDS011;22291;52.250;21.228;2023-07-02T01:49:46;34.20;;;22.10;;
36253;SDS011;22291;52.250;21.228;2023-07-02T01:52:14;36.13;;;21.57;;
36253;SDS011;22291;52.250;21.228;2023-07-02T01:54:43;35.63;;;21.97;;
36253;SDS011;22291;52.250;21.228;2023-07-02T01:57:14;39.15;;;21.42;;
36253;SDS011;22291;52.250;21.228;2023-07-02T01:59:42;40.63;;;23.32;;
36253;SDS011;22291;52.250;21.228;2023-07-02T02:02:09;32.33;;;21.50;;
36253;SDS011;22291;52.250;21.228;2023-07-02T02:04:36;35.83;;;22.52;;
36253;SDS011;22291;52.250;21.228;2023-07-02T02:07:04;38.35;;;22.58;;
36253;SDS011;22291;52.250;21.228;2023-07-02T02:09:31;35.30;;;21.37;;
36253;SDS011;22291;52.250;21.228;2023-07-02T02:11:59;38.92;;;22.48;;
36253;SDS011;22291;52.250;21.228;2023-07-02T02:14:27;36.13;;;23.15;;
36253;SDS011;22291;52.250;21.228;2023-07-02T02:16:54;34.27;;;22.77;;
36253;SDS011;22291;52.250;21.228;2023-07-02T02:19:21;38.90;;;22.87;;
36253;SDS011;22291;52.250;21.228;2023-07-02T02:21:48;37.15;;;23.18;;
36253;SDS011;22291;52.250;21.228;2023-07-02T02:24:16;35.45;;;22.82;;
36253;SDS011;22291;52.250;21.228;2023-07-02T02:26:43;38.15;;;23.20;;
36253;SDS011;22291;52.250;21.228;2023-07-02T02:29:10;35.40;;;21.48;;
36253;SDS011;22291;52.250;21.228;2023-07-02T02:31:37;39.25;;;22.42;;
36253;SDS011;22291;52.250;21.228;2023-07-02T02:34:04;35.70;;;22.17;;
36253;SDS011;22291;52.250;21.228;2023-07-02T02:36:32;40.73;;;23.60;;
36253;SDS011;22291;52.250;21.228;2023-07-02T02:38:59;37.95;;;23.70;;
36253;SDS011;22291;52.250;21.228;2023-07-02T02:41:26;37.13;;;23.47;;
36253;SDS011;22291;52.250;21.228;2023-07-02T02:43:53;37.28;;;23.02;;
36253;SDS011;22291;52.250;21.228;2023-07-02T02:46:20;36.23;;;24.18;;
36253;SDS011;22291;52.250;21.228;2023-07-02T02:51:18;38.00;;;23.47;;
36253;SDS011;22291;52.250;21.228;2023-07-02T02:53:47;42.23;;;24.65;;
36253;SDS011;22291;52.250;21.228;2023-07-02T02:56:15;36.60;;;22.85;;
36253;SDS011;22291;52.250;21.228;2023-07-02T02:58:43;42.08;;;25.50;;
36253;SDS011;22291;52.250;21.228;2023-07-02T03:01:12;38.75;;;25.23;;
36253;SDS011;22291;52.250;21.228;2023-07-02T03:03:39;37.90;;;25.05;;
36253;SDS011;22291;52.250;21.228;2023-07-02T03:06:12;36.65;;;24.45;;
36253;SDS011;22291;52.250;21.228;2023-07-02T03:11:08;37.98;;;23.90;;
36253;SDS011;22291;52.250;21.228;2023-07-02T03:13:35;36.05;;;23.85;;
36253;SDS011;22291;52.250;21.228;2023-07-02T03:16:02;39.40;;;23.98;;
36253;SDS011;22291;52.250;21.228;2023-07-02T03:18:31;39.63;;;24.15;;
36253;SDS011;22291;52.250;21.228;2023-07-02T03:21:00;38.77;;;24.10;;
36253;SDS011;22291;52.250;21.228;2023-07-02T03:23:27;39.18;;;24.30;;
36253;SDS011;22291;52.250;21.228;2023-07-02T03:25:54;39.92;;;24.82;;
36253;SDS011;22291;52.250;21.228;2023-07-02T03:28:21;37.50;;;26.30;;
36253;SDS011;22291;52.250;21.228;2023-07-02T03:30:49;36.88;;;25.57;;
36253;SDS011;22291;52.250;21.228;2023-07-02T03:33:16;41.70;;;26.55;;
36253;SDS011;22291;52.250;21.228;2023-07-02T03:35:43;43.40;;;25.65;;
36253;SDS011;22291;52.250;21.228;2023-07-02T03:38:10;45.05;;;26.77;;
36253;SDS011;22291;52.250;21.228;2023-07-02T03:40:38;40.55;;;25.75;;
36253;SDS011;22291;52.250;21.228;2023-07-02T03:43:05;36.68;;;24.63;;
36253;SDS011;22291;52.250;21.228;2023-07-02T03:45:33;41.88;;;25.02;;
36253;SDS011;22291;52.250;21.228;2023-07-02T03:48:00;45.52;;;26.37;;
36253;SDS011;22291;52.250;21.228;2023-07-02T03:50:28;34.05;;;23.75;;
36253;SDS011;22291;52.250;21.228;2023-07-02T03:52:55;37.03;;;24.98;;
36253;SDS011;22291;52.250;21.228;2023-07-02T03:55:22;35.63;;;23.20;;
36253;SDS011;22291;52.250;21.228;2023-07-02T03:57:51;36.93;;;23.40;;
36253;SDS011;22291;52.250;21.228;2023-07-02T04:00:20;38.88;;;25.17;;
36253;SDS011;22291;52.250;21.228;2023-07-02T04:02:47;32.05;;;22.60;;
36253;SDS011;22291;52.250;21.228;2023-07-02T04:05:16;33.42;;;22.90;;
36253;SDS011;22291;52.250;21.228;2023-07-02T04:07:43;34.38;;;22.62;;
36253;SDS011;22291;52.250;21.228;2023-07-02T04:10:10;36.68;;;22.58;;
36253;SDS011;22291;52.250;21.228;2023-07-02T04:12:37;36.48;;;23.30;;
36253;SDS011;22291;52.250;21.228;2023-07-02T04:15:06;34.33;;;23.27;;
36253;SDS011;22291;52.250;21.228;2023-07-02T04:17:35;35.92;;;22.25;;
36253;SDS011;22291;52.250;21.228;2023-07-02T04:20:03;35.73;;;24.18;;
36253;SDS011;22291;52.250;21.228;2023-07-02T04:22:33;33.78;;;22.15;;
36253;SDS011;22291;52.250;21.228;2023-07-02T04:25:00;31.20;;;21.45;;
36253;SDS011;22291;52.250;21.228;2023-07-02T04:27:28;35.52;;;22.22;;
36253;SDS011;22291;52.250;21.228;2023-07-02T04:29:55;32.33;;;21.77;;
36253;SDS011;22291;52.250;21.228;2023-07-02T04:32:22;30.15;;;20.25;;
36253;SDS011;22291;52.250;21.228;2023-07-02T04:34:51;36.55;;;22.48;;
36253;SDS011;22291;52.250;21.228;2023-07-02T04:37:18;31.27;;;21.97;;
36253;SDS011;22291;52.250;21.228;2023-07-02T04:39:46;31.82;;;21.95;;
36253;SDS011;22291;52.250;21.228;2023-07-02T04:42:13;32.38;;;22.00;;
36253;SDS011;22291;52.250;21.228;2023-07-02T04:44:42;31.07;;;22.10;;
36253;SDS011;22291;52.250;21.228;2023-07-02T04:47:10;29.67;;;21.12;;
36253;SDS011;22291;52.250;21.228;2023-07-02T04:49:39;29.97;;;21.00;;
36253;SDS011;22291;52.250;21.228;2023-07-02T04:52:06;30.05;;;19.25;;
36253;SDS011;22291;52.250;21.228;2023-07-02T04:54:33;31.93;;;21.10;;
36253;SDS011;22291;52.250;21.228;2023-07-02T04:57:00;27.70;;;19.82;;
36253;SDS011;22291;52.250;21.228;2023-07-02T04:59:28;28.12;;;19.00;;
36253;SDS011;22291;52.250;21.228;2023-07-02T05:01:55;31.17;;;20.45;;
36253;SDS011;22291;52.250;21.228;2023-07-02T05:04:22;27.98;;;19.45;;
36253;SDS011;22291;52.250;21.228;2023-07-02T05:06:49;27.98;;;19.15;;
36253;SDS011;22291;52.250;21.228;2023-07-02T05:09:16;29.85;;;20.02;;
36253;SDS011;22291;52.250;21.228;2023-07-02T05:11:43;26.37;;;18.50;;
36253;SDS011;22291;52.250;21.228;2023-07-02T05:14:10;26.62;;;17.92;;
36253;SDS011;22291;52.250;21.228;2023-07-02T05:16:38;25.37;;;18.27;;
36253;SDS011;22291;52.250;21.228;2023-07-02T05:19:05;28.23;;;18.80;;
36253;SDS011;22291;52.250;21.228;2023-07-02T05:21:32;25.02;;;18.55;;
36253;SDS011;22291;52.250;21.228;2023-07-02T05:24:00;25.70;;;18.52;;
36253;SDS011;22291;52.250;21.228;2023-07-02T05:26:27;26.62;;;17.65;;
36253;SDS011;22291;52.250;21.228;2023-07-02T05:28:55;24.27;;;17.87;;
36253;SDS011;22291;52.250;21.228;2023-07-02T05:31:22;23.60;;;17.27;;
36253;SDS011;22291;52.250;21.228;2023-07-02T05:33:49;26.25;;;17.95;;
36253;SDS011;22291;52.250;21.228;2023-07-02T05:36:16;22.85;;;16.35;;
36253;SDS011;22291;52.250;21.228;2023-07-02T05:38:43;23.52;;;15.70;;
36253;SDS011;22291;52.250;21.228;2023-07-02T05:41:10;23.52;;;16.52;;
36253;SDS011;22291;52.250;21.228;2023-07-02T05:43:37;21.60;;;15.08;;
36253;SDS011;22291;52.250;21.228;2023-07-02T05:46:05;23.20;;;16.07;;
36253;SDS011;22291;52.250;21.228;2023-07-02T05:48:32;22.48;;;15.78;;
36253;SDS011;22291;52.250;21.228;2023-07-02T05:50:59;20.92;;;14.98;;
36253;SDS011;22291;52.250;21.228;2023-07-02T05:53:26;24.18;;;16.45;;
36253;SDS011;22291;52.250;21.228;2023-07-02T05:55:53;18.62;;;15.10;;
36253;SDS011;22291;52.250;21.228;2023-07-02T05:58:20;20.85;;;14.10;;
36253;SDS011;22291;52.250;21.228;2023-07-02T06:00:47;23.60;;;16.30;;
36253;SDS011;22291;52.250;21.228;2023-07-02T06:03:17;18.32;;;13.55;;
36253;SDS011;22291;52.250;21.228;2023-07-02T06:05:48;19.25;;;13.75;;
36253;SDS011;22291;52.250;21.228;2023-07-02T06:08:17;21.15;;;14.00;;
36253;SDS011;22291;52.250;21.228;2023-07-02T06:10:46;22.02;;;14.43;;
36253;SDS011;22291;52.250;21.228;2023-07-02T06:13:15;18.92;;;13.65;;
36253;SDS011;22291;52.250;21.228;2023-07-02T06:15:43;17.90;;;13.23;;
36253;SDS011;22291;52.250;21.228;2023-07-02T06:18:12;18.50;;;12.75;;
36253;SDS011;22291;52.250;21.228;2023-07-02T06:20:41;17.10;;;12.20;;
36253;SDS011;22291;52.250;21.228;2023-07-02T06:23:08;15.72;;;12.18;;
36253;SDS011;22291;52.250;21.228;2023-07-02T06:25:35;19.15;;;12.25;;
36253;SDS011;22291;52.250;21.228;2023-07-02T06:28:04;17.12;;;11.43;;
36253;SDS011;22291;52.250;21.228;2023-07-02T06:30:32;16.00;;;11.83;;
36253;SDS011;22291;52.250;21.228;2023-07-02T06:32:59;16.05;;;11.28;;
36253;SDS011;22291;52.250;21.228;2023-07-02T06:35:26;17.50;;;10.93;;
36253;SDS011;22291;52.250;21.228;2023-07-02T06:37:53;19.48;;;11.35;;
36253;SDS011;22291;52.250;21.228;2023-07-02T06:40:20;12.68;;;9.70;;
36253;SDS011;22291;52.250;21.228;2023-07-02T06:42:49;14.40;;;9.23;;
36253;SDS011;22291;52.250;21.228;2023-07-02T06:45:16;17.85;;;10.82;;
36253;SDS011;22291;52.250;21.228;2023-07-02T06:47:43;14.40;;;9.63;;
36253;SDS011;22291;52.250;21.228;2023-07-02T06:50:10;14.58;;;9.28;;
36253;SDS011;22291;52.250;21.228;2023-07-02T06:52:38;13.32;;;8.63;;
36253;SDS011;22291;52.250;21.228;2023-07-02T06:55:05;15.65;;;9.28;;
36253;SDS011;22291;52.250;21.228;2023-07-02T06:57:33;15.72;;;8.60;;
36253;SDS011;22291;52.250;21.228;2023-07-02T07:00:01;14.58;;;9.05;;
36253;SDS011;22291;52.250;21.228;2023-07-02T07:02:30;13.45;;;7.87;;
36253;SDS011;22291;52.250;21.228;2023-07-02T07:04:57;15.15;;;7.97;;
36253;SDS011;22291;52.250;21.228;2023-07-02T07:07:24;11.28;;;7.45;;
36253;SDS011;22291;52.250;21.228;2023-07-02T07:09:51;9.05;;;6.60;;
36253;SDS011;22291;52.250;21.228;2023-07-02T07:12:18;8.08;;;6.60;;
36253;SDS011;22291;52.250;21.228;2023-07-02T07:14:45;13.22;;;8.13;;
36253;SDS011;22291;52.250;21.228;2023-07-02T07:17:12;11.20;;;7.28;;
36253;SDS011;22291;52.250;21.228;2023-07-02T07:19:40;9.70;;;7.25;;
36253;SDS011;22291;52.250;21.228;2023-07-02T07:22:07;13.90;;;6.97;;
36253;SDS011;22291;52.250;21.228;2023-07-02T07:24:34;10.85;;;6.53;;
36253;SDS011;22291;52.250;21.228;2023-07-02T07:27:01;10.23;;;6.72;;
36253;SDS011;22291;52.250;21.228;2023-07-02T07:29:28;11.30;;;6.83;;
36253;SDS011;22291;52.250;21.228;2023-07-02T07:31:56;9.90;;;7.00;;
36253;SDS011;22291;52.250;21.228;2023-07-02T07:34:24;9.13;;;6.55;;
36253;SDS011;22291;52.250;21.228;2023-07-02T07:36:51;9.60;;;6.90;;
36253;SDS011;22291;52.250;21.228;2023-07-02T07:39:18;10.70;;;6.37;;
36253;SDS011;22291;52.250;21.228;2023-07-02T07:41:46;9.98;;;7.30;;
36253;SDS011;22291;52.250;21.228;2023-07-02T07:44:15;11.85;;;6.12;;
36253;SDS011;22291;52.250;21.228;2023-07-02T07:46:42;10.80;;;6.35;;
36253;SDS011;22291;52.250;21.228;2023-07-02T07:49:10;8.10;;;5.60;;
36253;SDS011;22291;52.250;21.228;2023-07-02T07:51:39;11.12;;;6.20;;
36253;SDS011;22291;52.250;21.228;2023-07-02T07:54:06;8.93;;;6.33;;
36253;SDS011;22291;52.250;21.228;2023-07-02T07:56:34;10.55;;;6.90;;
36253;SDS011;22291;52.250;21.228;2023-07-02T07:59:01;17.82;;;5.37;;
36253;SDS011;22291;52.250;21.228;2023-07-02T08:01:31;10.15;;;5.70;;
36253;SDS011;22291;52.250;21.228;2023-07-02T08:03:58;8.78;;;6.22;;
36253;SDS011;22291;52.250;21.228;2023-07-02T08:06:25;7.20;;;4.97;;
36253;SDS011;22291;52.250;21.228;2023-07-02T08:08:53;7.30;;;4.67;;
36253;SDS011;22291;52.250;21.228;2023-07-02T08:11:21;15.18;;;13.62;;
36253;SDS011;22291;52.250;21.228;2023-07-02T08:13:48;74.55;;;70.15;;
36253;SDS011;22291;52.250;21.228;2023-07-02T08:16:15;73.70;;;69.40;;
36253;SDS011;22291;52.250;21.228;2023-07-02T08:18:43;74.42;;;69.58;;
36253;SDS011;22291;52.250;21.228;2023-07-02T08:21:10;61.15;;;57.35;;
36253;SDS011;22291;52.250;21.228;2023-07-02T08:23:38;6.67;;;4.20;;
36253;SDS011;22291;52.250;21.228;2023-07-02T08:26:05;4.47;;;3.47;;
36253;SDS011;22291;52.250;21.228;2023-07-02T08:28:34;4.85;;;3.65;;
36253;SDS011;22291;52.250;21.228;2023-07-02T08:31:01;5.00;;;4.22;;
36253;SDS011;22291;52.250;21.228;2023-07-02T08:33:29;6.05;;;4.08;;
36253;SDS011;22291;52.250;21.228;2023-07-02T08:35:57;5.83;;;4.17;;
36253;SDS011;22291;52.250;21.228;2023-07-02T08:38:24;4.80;;;3.80;;
36253;SDS011;22291;52.250;21.228;2023-07-02T08:40:51;6.00;;;4.22;;
36253;SDS011;22291;52.250;21.228;2023-07-02T08:43:19;7.55;;;3.80;;
36253;SDS011;22291;52.250;21.228;2023-07-02T08:45:47;5.53;;;3.80;;
36253;SDS011;22291;52.250;21.228;2023-07-02T08:48:15;8.75;;;3.65;;
36253;SDS011;22291;52.250;21.228;2023-07-02T08:50:45;5.67;;;3.83;;
36253;SDS011;22291;52.250;21.228;2023-07-02T08:53:14;8.60;;;4.33;;
36253;SDS011;22291;52.250;21.228;2023-07-02T08:55:43;5.00;;;3.50;;
36253;SDS011;22291;52.250;21.228;2023-07-02T08:58:10;8.05;;;3.80;;
36253;SDS011;22291;52.250;21.228;2023-07-02T09:00:38;5.65;;;4.00;;
36253;SDS011;22291;52.250;21.228;2023-07-02T09:03:14;6.22;;;3.72;;
36253;SDS011;22291;52.250;21.228;2023-07-02T09:05:48;6.97;;;4.47;;
36253;SDS011;22291;52.250;21.228;2023-07-02T09:08:25;6.30;;;4.30;;
36253;SDS011;22291;52.250;21.228;2023-07-02T09:10:54;7.37;;;3.95;;
36253;SDS011;22291;52.250;21.228;2023-07-02T09:13:46;6.20;;;4.35;;
36253;SDS011;22291;52.250;21.228;2023-07-02T09:21:42;4.60;;;4.10;;
36253;SDS011;22291;52.250;21.228;2023-07-02T09:26:46;5.62;;;4.40;;
36253;SDS011;22291;52.250;21.228;2023-07-02T09:31:58;4.03;;;3.65;;
36253;SDS011;22291;52.250;21.228;2023-07-02T09:36:59;6.10;;;4.37;;
36253;SDS011;22291;52.250;21.228;2023-07-02T09:39:32;9.83;;;4.50;;
36253;SDS011;22291;52.250;21.228;2023-07-02T09:42:09;6.60;;;4.80;;
36253;SDS011;22291;52.250;21.228;2023-07-02T09:44:52;6.50;;;4.00;;
36253;SDS011;22291;52.250;21.228;2023-07-02T09:47:23;4.17;;;3.77;;
36253;SDS011;22291;52.250;21.228;2023-07-02T09:50:03;4.15;;;3.75;;
36253;SDS011;22291;52.250;21.228;2023-07-02T09:52:33;5.10;;;4.40;;
36253;SDS011;22291;52.250;21.228;2023-07-02T09:55:03;4.35;;;3.95;;
36253;SDS011;22291;52.250;21.228;2023-07-02T09:57:34;6.83;;;5.80;;
36253;SDS011;22291;52.250;21.228;2023-07-02T10:00:03;5.47;;;4.97;;
36253;SDS011;22291;52.250;21.228;2023-07-02T10:02:40;5.70;;;4.45;;
36253;SDS011;22291;52.250;21.228;2023-07-02T10:05:09;6.22;;;3.83;;
36253;SDS011;22291;52.250;21.228;2023-07-02T10:10:07;6.03;;;5.10;;
36253;SDS011;22291;52.250;21.228;2023-07-02T10:12:45;5.03;;;3.85;;
36253;SDS011;22291;52.250;21.228;2023-07-02T10:15:10;5.05;;;3.72;;
36253;SDS011;22291;52.250;21.228;2023-07-02T10:17:37;5.42;;;3.77;;
36253;SDS011;22291;52.250;21.228;2023-07-02T10:20:06;4.30;;;3.10;;
36253;SDS011;22291;52.250;21.228;2023-07-02T10:22:43;6.40;;;3.47;;
36253;SDS011;22291;52.250;21.228;2023-07-02T10:25:38;3.17;;;2.90;;
36253;SDS011;22291;52.250;21.228;2023-07-02T10:28:13;3.60;;;3.15;;
36253;SDS011;22291;52.250;21.228;2023-07-02T10:30:46;5.12;;;3.45;;
36253;SDS011;22291;52.250;21.228;2023-07-02T10:33:14;5.58;;;3.15;;
36253;SDS011;22291;52.250;21.228;2023-07-02T10:35:45;2.83;;;2.45;;
36253;SDS011;22291;52.250;21.228;2023-07-02T10:40:56;2.70;;;2.50;;
36253;SDS011;22291;52.250;21.228;2023-07-02T10:43:27;2.60;;;2.40;;
36253;SDS011;22291;52.250;21.228;2023-07-02T10:45:58;2.30;;;2.10;;
36253;SDS011;22291;52.250;21.228;2023-07-02T10:48:27;3.33;;;2.42;;
36253;SDS011;22291;52.250;21.228;2023-07-02T10:50:55;5.05;;;2.60;;
36253;SDS011;22291;52.250;21.228;2023-07-02T10:53:23;2.30;;;2.10;;
36253;SDS011;22291;52.250;21.228;2023-07-02T10:55:54;4.35;;;2.42;;
36253;SDS011;22291;52.250;21.228;2023-07-02T10:58:23;2.30;;;2.10;;
36253;SDS011;22291;52.250;21.228;2023-07-02T11:00:51;2.45;;;2.25;;
36253;SDS011;22291;52.250;21.228;2023-07-02T11:05:49;2.85;;;2.55;;
36253;SDS011;22291;52.250;21.228;2023-07-02T11:08:18;3.52;;;2.40;;
36253;SDS011;22291;52.250;21.228;2023-07-02T11:10:48;2.77;;;2.55;;
36253;SDS011;22291;52.250;21.228;2023-07-02T11:13:16;2.30;;;2.10;;
36253;SDS011;22291;52.250;21.228;2023-07-02T11:15:47;6.25;;;2.50;;
36253;SDS011;22291;52.250;21.228;2023-07-02T11:18:15;17.67;;;12.25;;
36253;SDS011;22291;52.250;21.228;2023-07-02T11:20:47;5.37;;;4.58;;
36253;SDS011;22291;52.250;21.228;2023-07-02T11:23:19;4.70;;;3.37;;
36253;SDS011;22291;52.250;21.228;2023-07-02T11:26:03;6.28;;;3.08;;
36253;SDS011;22291;52.250;21.228;2023-07-02T11:28:30;4.50;;;2.42;;
36253;SDS011;22291;52.250;21.228;2023-07-02T11:31:01;5.15;;;2.60;;
36253;SDS011;22291;52.250;21.228;2023-07-02T11:33:36;3.77;;;2.15;;
36253;SDS011;22291;52.250;21.228;2023-07-02T11:36:07;3.47;;;2.40;;
36253;SDS011;22291;52.250;21.228;2023-07-02T11:38:41;6.53;;;2.80;;
36253;SDS011;22291;52.250;21.228;2023-07-02T11:41:08;2.92;;;2.65;;
36253;SDS011;22291;52.250;21.228;2023-07-02T11:43:37;3.62;;;2.95;;
36253;SDS011;22291;52.250;21.228;2023-07-02T11:46:05;3.25;;;2.60;;
36253;SDS011;22291;52.250;21.228;2023-07-02T11:48:32;3.20;;;2.67;;
36253;SDS011;22291;52.250;21.228;2023-07-02T11:50:59;9.00;;;2.98;;
36253;SDS011;22291;52.250;21.228;2023-07-02T11:53:27;3.92;;;2.80;;
36253;SDS011;22291;52.250;21.228;2023-07-02T11:55:55;6.83;;;2.60;;
36253;SDS011;22291;52.250;21.228;2023-07-02T11:58:22;4.47;;;2.55;;
36253;SDS011;22291;52.250;21.228;2023-07-02T12:00:49;2.45;;;2.12;;
36253;SDS011;22291;52.250;21.228;2023-07-02T12:03:16;4.62;;;2.30;;
36253;SDS011;22291;52.250;21.228;2023-07-02T12:05:44;2.72;;;2.52;;
36253;SDS011;22291;52.250;21.228;2023-07-02T12:08:11;5.72;;;2.75;;
36253;SDS011;22291;52.250;21.228;2023-07-02T12:10:38;3.85;;;2.65;;
36253;SDS011;22291;52.250;21.228;2023-07-02T12:13:05;5.97;;;3.60;;
36253;SDS011;22291;52.250;21.228;2023-07-02T12:15:32;2.75;;;2.55;;
36253;SDS011;22291;52.250;21.228;2023-07-02T12:18:00;6.08;;;2.30;;
36253;SDS011;22291;52.250;21.228;2023-07-02T12:20:27;3.25;;;2.60;;
36253;SDS011;22291;52.250;21.228;2023-07-02T12:22:54;2.95;;;2.42;;
36253;SDS011;22291;52.250;21.228;2023-07-02T12:25:21;2.83;;;2.20;;
36253;SDS011;22291;52.250;21.228;2023-07-02T12:27:49;2.72;;;2.05;;
36253;SDS011;22291;52.250;21.228;2023-07-02T12:30:16;10.05;;;2.60;;
36253;SDS011;22291;52.250;21.228;2023-07-02T12:32:44;6.55;;;2.22;;
36253;SDS011;22291;52.250;21.228;2023-07-02T12:35:12;6.00;;;2.77;;
36253;SDS011;22291;52.250;21.228;2023-07-02T12:37:49;3.98;;;2.25;;
36253;SDS011;22291;52.250;21.228;2023-07-02T12:40:15;5.83;;;3.37;;
36253;SDS011;22291;52.250;21.228;2023-07-02T12:42:44;3.52;;;2.47;;
36253;SDS011;22291;52.250;21.228;2023-07-02T12:45:13;5.00;;;1.90;;
36253;SDS011;22291;52.250;21.228;2023-07-02T12:47:41;4.20;;;1.95;;
36253;SDS011;22291;52.250;21.228;2023-07-02T12:50:09;7.43;;;3.33;;
36253;SDS011;22291;52.250;21.228;2023-07-02T12:52:38;2.33;;;2.12;;
36253;SDS011;22291;52.250;21.228;2023-07-02T12:55:05;2.40;;;1.80;;
36253;SDS011;22291;52.250;21.228;2023-07-02T12:57:34;4.33;;;2.02;;
36253;SDS011;22291;52.250;21.228;2023-07-02T13:00:03;2.75;;;2.20;;
36253;SDS011;22291;52.250;21.228;2023-07-02T13:02:33;2.30;;;1.80;;
36253;SDS011;22291;52.250;21.228;2023-07-02T13:05:01;2.08;;;1.72;;
36253;SDS011;22291;52.250;21.228;2023-07-02T13:07:30;4.35;;;2.42;;
36253;SDS011;22291;52.250;21.228;2023-07-02T13:09:58;2.95;;;1.80;;
36253;SDS011;22291;52.250;21.228;2023-07-02T13:12:25;2.58;;;1.90;;
36253;SDS011;22291;52.250;21.228;2023-07-02T13:14:54;3.65;;;1.80;;
36253;SDS011;22291;52.250;21.228;2023-07-02T13:17:21;1.90;;;1.70;;
36253;SDS011;22291;52.250;21.228;2023-07-02T13:19:49;3.15;;;1.72;;
36253;SDS011;22291;52.250;21.228;2023-07-02T13:22:16;3.40;;;1.90;;
36253;SDS011;22291;52.250;21.228;2023-07-02T13:24:44;3.55;;;1.85;;
36253;SDS011;22291;52.250;21.228;2023-07-02T13:27:12;2.90;;;1.50;;
36253;SDS011;22291;52.250;21.228;2023-07-02T13:29:42;1.80;;;1.57;;
36253;SDS011;22291;52.250;21.228;2023-07-02T13:32:09;2.17;;;1.57;;
36253;SDS011;22291;52.250;21.228;2023-07-02T13:34:38;2.20;;;2.00;;
36253;SDS011;22291;52.250;21.228;2023-07-02T13:37:06;12.20;;;11.30;;
36253;SDS011;22291;52.250;21.228;2023-07-02T13:39:36;1.60;;;1.50;;
36253;SDS011;22291;52.250;21.228;2023-07-02T13:42:04;2.77;;;1.90;;
36253;SDS011;22291;52.250;21.228;2023-07-02T13:44:33;2.47;;;1.60;;
36253;SDS011;22291;52.250;21.228;2023-07-02T13:47:00;38.35;;;35.68;;
36253;SDS011;22291;52.250;21.228;2023-07-02T13:49:27;6.33;;;1.62;;
36253;SDS011;22291;52.250;21.228;2023-07-02T13:51:54;2.87;;;1.60;;
36253;SDS011;22291;52.250;21.228;2023-07-02T13:54:21;9.10;;;8.20;;
36253;SDS011;22291;52.250;21.228;2023-07-02T13:56:49;6.37;;;2.70;;
36253;SDS011;22291;52.250;21.228;2023-07-02T13:59:17;2.20;;;1.82;;
36253;SDS011;22291;52.250;21.228;2023-07-02T14:04:14;6.00;;;1.90;;
36253;SDS011;22291;52.250;21.228;2023-07-02T14:06:43;3.50;;;1.85;;
36253;SDS011;22291;52.250;21.228;2023-07-02T14:09:11;3.98;;;2.15;;
36253;SDS011;22291;52.250;21.228;2023-07-02T14:11:39;4.12;;;1.90;;
36253;SDS011;22291;52.250;21.228;2023-07-02T14:14:09;3.52;;;1.60;;
36253;SDS011;22291;52.250;21.228;2023-07-02T14:16:37;4.37;;;1.80;;
36253;SDS011;22291;52.250;21.228;2023-07-02T14:19:04;4.12;;;1.90;;
36253;SDS011;22291;52.250;21.228;2023-07-02T14:21:32;2.00;;;1.80;;
36253;SDS011;22291;52.250;21.228;2023-07-02T14:23:59;2.15;;;1.87;;
36253;SDS011;22291;52.250;21.228;2023-07-02T14:26:27;1.95;;;1.50;;
36253;SDS011;22291;52.250;21.228;2023-07-02T14:28:54;1.60;;;1.50;;
36253;SDS011;22291;52.250;21.228;2023-07-02T14:31:21;1.42;;;1.32;;
36253;SDS011;22291;52.250;21.228;2023-07-02T14:33:48;2.37;;;1.55;;
36253;SDS011;22291;52.250;21.228;2023-07-02T14:36:15;6.70;;;1.75;;
36253;SDS011;22291;52.250;21.228;2023-07-02T14:38:43;5.72;;;1.77;;
36253;SDS011;22291;52.250;21.228;2023-07-02T14:41:11;3.83;;;1.75;;
36253;SDS011;22291;52.250;21.228;2023-07-02T14:43:40;1.55;;;1.37;;
36253;SDS011;22291;52.250;21.228;2023-07-02T14:46:08;2.10;;;1.60;;
36253;SDS011;22291;52.250;21.228;2023-07-02T14:48:35;1.70;;;1.60;;
36253;SDS011;22291;52.250;21.228;2023-07-02T14:51:02;2.45;;;1.57;;
36253;SDS011;22291;52.250;21.228;2023-07-02T14:53:31;3.15;;;1.70;;
36253;SDS011;22291;52.250;21.228;2023-07-02T14:56:01;1.67;;;1.50;;
36253;SDS011;22291;52.250;21.228;2023-07-02T14:58:29;2.47;;;1.90;;